sensor_id;sensor_type;location;lat;lon;timestamp;P1;durP1;ratioP1;P2;durP2;ratioP2
69789;SDS011;57064;52.046;4.800;2022-10-15T00:01:51;56.47;;;26.58;;
69789;SDS011;57064;52.046;4.800;2022-10-15T00:04:17;51.20;;;26.85;;
69789;SDS011;57064;52.046;4.800;2022-10-15T00:06:43;54.83;;;29.15;;
69789;SDS011;57064;52.046;4.800;2022-10-15T00:09:09;58.60;;;26.83;;
69789;SDS011;57064;52.046;4.800;2022-10-15T00:11:35;47.75;;;24.75;;
69789;SDS011;57064;52.046;4.800;2022-10-15T00:14:02;54.72;;;26.65;;
69789;SDS011;57064;52.046;4.800;2022-10-15T00:16:28;58.97;;;27.35;;
69789;SDS011;57064;52.046;4.800;2022-10-15T00:18:55;55.58;;;26.85;;
69789;SDS011;57064;52.046;4.800;2022-10-15T00:21:22;61.10;;;28.77;;
69789;SDS011;57064;52.046;4.800;2022-10-15T00:23:49;52.08;;;27.02;;
69789;SDS011;57064;52.046;4.800;2022-10-15T00:26:16;55.80;;;25.95;;
69789;SDS011;57064;52.046;4.800;2022-10-15T00:28:45;63.55;;;29.23;;
69789;SDS011;57064;52.046;4.800;2022-10-15T00:31:14;63.47;;;29.75;;
69789;SDS011;57064;52.046;4.800;2022-10-15T00:33:41;59.35;;;30.13;;
69789;SDS011;57064;52.046;4.800;2022-10-15T00:36:16;66.10;;;29.92;;
69789;SDS011;57064;52.046;4.800;2022-10-15T00:38:44;59.33;;;28.98;;
69789;SDS011;57064;52.046;4.800;2022-10-15T00:41:30;70.20;;;30.40;;
69789;SDS011;57064;52.046;4.800;2022-10-15T00:46:52;65.25;;;30.88;;
69789;SDS011;57064;52.046;4.800;2022-10-15T00:51:56;66.65;;;32.60;;
69789;SDS011;57064;52.046;4.800;2022-10-15T00:54:27;73.63;;;35.42;;
69789;SDS011;57064;52.046;4.800;2022-10-15T00:56:56;74.72;;;34.95;;
69789;SDS011;57064;52.046;4.800;2022-10-15T00:59:23;74.25;;;34.63;;
69789;SDS011;57064;52.046;4.800;2022-10-15T01:01:51;79.60;;;38.08;;
69789;SDS011;57064;52.046;4.800;2022-10-15T01:04:18;77.13;;;36.13;;
69789;SDS011;57064;52.046;4.800;2022-10-15T01:06:45;76.80;;;37.50;;
69789;SDS011;57064;52.046;4.800;2022-10-15T01:09:11;90.80;;;39.75;;
69789;SDS011;57064;52.046;4.800;2022-10-15T01:11:43;82.68;;;37.28;;
69789;SDS011;57064;52.046;4.800;2022-10-15T01:16:58;83.15;;;38.20;;
69789;SDS011;57064;52.046;4.800;2022-10-15T01:25:47;84.95;;;38.42;;
69789;SDS011;57064;52.046;4.800;2022-10-15T01:30:58;79.60;;;36.90;;
69789;SDS011;57064;52.046;4.800;2022-10-15T01:33:35;84.13;;;38.53;;
69789;SDS011;57064;52.046;4.800;2022-10-15T01:41:13;79.63;;;34.78;;
69789;SDS011;57064;52.046;4.800;2022-10-15T01:44:29;76.38;;;34.95;;
69789;SDS011;57064;52.046;4.800;2022-10-15T01:47:04;82.35;;;37.63;;
69789;SDS011;57064;52.046;4.800;2022-10-15T01:49:40;71.65;;;34.28;;
69789;SDS011;57064;52.046;4.800;2022-10-15T01:52:11;71.97;;;35.85;;
69789;SDS011;57064;52.046;4.800;2022-10-15T01:54:44;82.60;;;37.20;;
69789;SDS011;57064;52.046;4.800;2022-10-15T01:57:11;75.63;;;34.85;;
69789;SDS011;57064;52.046;4.800;2022-10-15T01:59:39;85.40;;;36.60;;
69789;SDS011;57064;52.046;4.800;2022-10-15T02:02:09;79.80;;;35.88;;
69789;SDS011;57064;52.046;4.800;2022-10-15T02:04:35;79.90;;;35.33;;
69789;SDS011;57064;52.046;4.800;2022-10-15T02:09:40;74.20;;;34.50;;
69789;SDS011;57064;52.046;4.800;2022-10-15T02:12:22;86.47;;;38.65;;
69789;SDS011;57064;52.046;4.800;2022-10-15T02:15:09;90.38;;;39.05;;
69789;SDS011;57064;52.046;4.800;2022-10-15T02:20:38;93.75;;;39.13;;
69789;SDS011;57064;52.046;4.800;2022-10-15T02:23:19;84.28;;;37.05;;
69789;SDS011;57064;52.046;4.800;2022-10-15T02:25:55;83.88;;;37.90;;
69789;SDS011;57064;52.046;4.800;2022-10-15T02:28:22;90.15;;;39.38;;
69789;SDS011;57064;52.046;4.800;2022-10-15T02:30:50;87.45;;;39.88;;
69789;SDS011;57064;52.046;4.800;2022-10-15T02:33:17;91.05;;;39.53;;
69789;SDS011;57064;52.046;4.800;2022-10-15T02:35:45;89.13;;;38.55;;
69789;SDS011;57064;52.046;4.800;2022-10-15T02:38:14;83.80;;;38.45;;
69789;SDS011;57064;52.046;4.800;2022-10-15T02:40:43;90.32;;;39.33;;
69789;SDS011;57064;52.046;4.800;2022-10-15T02:43:10;97.68;;;40.13;;
69789;SDS011;57064;52.046;4.800;2022-10-15T02:45:38;90.90;;;37.45;;
69789;SDS011;57064;52.046;4.800;2022-10-15T02:48:05;87.78;;;39.40;;
69789;SDS011;57064;52.046;4.800;2022-10-15T02:50:31;84.28;;;38.75;;
69789;SDS011;57064;52.046;4.800;2022-10-15T02:52:57;93.15;;;39.67;;
69789;SDS011;57064;52.046;4.800;2022-10-15T02:55:24;88.95;;;39.05;;
69789;SDS011;57064;52.046;4.800;2022-10-15T02:57:51;90.45;;;39.83;;
69789;SDS011;57064;52.046;4.800;2022-10-15T03:00:17;92.97;;;40.90;;
69789;SDS011;57064;52.046;4.800;2022-10-15T03:02:43;92.07;;;40.17;;
69789;SDS011;57064;52.046;4.800;2022-10-15T03:05:09;97.22;;;41.42;;
69789;SDS011;57064;52.046;4.800;2022-10-15T03:07:36;92.57;;;39.13;;
69789;SDS011;57064;52.046;4.800;2022-10-15T03:10:03;95.38;;;38.67;;
69789;SDS011;57064;52.046;4.800;2022-10-15T03:12:29;89.93;;;39.00;;
69789;SDS011;57064;52.046;4.800;2022-10-15T03:14:55;91.78;;;40.22;;
69789;SDS011;57064;52.046;4.800;2022-10-15T03:17:21;94.78;;;40.45;;
69789;SDS011;57064;52.046;4.800;2022-10-15T03:19:47;90.88;;;40.80;;
69789;SDS011;57064;52.046;4.800;2022-10-15T03:22:13;91.13;;;39.75;;
69789;SDS011;57064;52.046;4.800;2022-10-15T03:24:39;100.65;;;41.45;;
69789;SDS011;57064;52.046;4.800;2022-10-15T03:27:06;95.65;;;40.42;;
69789;SDS011;57064;52.046;4.800;2022-10-15T03:29:32;89.38;;;39.80;;
69789;SDS011;57064;52.046;4.800;2022-10-15T03:31:58;89.90;;;38.67;;
69789;SDS011;57064;52.046;4.800;2022-10-15T03:34:24;95.60;;;41.85;;
69789;SDS011;57064;52.046;4.800;2022-10-15T03:36:50;101.43;;;40.38;;
69789;SDS011;57064;52.046;4.800;2022-10-15T03:39:16;97.75;;;41.15;;
69789;SDS011;57064;52.046;4.800;2022-10-15T03:41:42;95.15;;;38.75;;
69789;SDS011;57064;52.046;4.800;2022-10-15T03:44:09;101.40;;;41.58;;
69789;SDS011;57064;52.046;4.800;2022-10-15T03:46:35;108.22;;;41.65;;
69789;SDS011;57064;52.046;4.800;2022-10-15T03:49:01;107.45;;;41.78;;
69789;SDS011;57064;52.046;4.800;2022-10-15T03:51:27;108.10;;;42.05;;
69789;SDS011;57064;52.046;4.800;2022-10-15T03:53:53;99.63;;;41.17;;
69789;SDS011;57064;52.046;4.800;2022-10-15T03:56:19;101.35;;;40.47;;
69789;SDS011;57064;52.046;4.800;2022-10-15T03:58:45;100.68;;;40.72;;
69789;SDS011;57064;52.046;4.800;2022-10-15T04:01:12;101.95;;;41.95;;
69789;SDS011;57064;52.046;4.800;2022-10-15T04:03:40;109.53;;;41.92;;
69789;SDS011;57064;52.046;4.800;2022-10-15T04:06:06;104.13;;;42.65;;
69789;SDS011;57064;52.046;4.800;2022-10-15T04:08:32;113.70;;;44.22;;
69789;SDS011;57064;52.046;4.800;2022-10-15T04:10:58;107.65;;;43.72;;
69789;SDS011;57064;52.046;4.800;2022-10-15T04:13:25;111.63;;;40.65;;
69789;SDS011;57064;52.046;4.800;2022-10-15T04:15:51;110.97;;;43.08;;
69789;SDS011;57064;52.046;4.800;2022-10-15T04:18:17;110.35;;;44.15;;
69789;SDS011;57064;52.046;4.800;2022-10-15T04:20:46;121.72;;;45.25;;
69789;SDS011;57064;52.046;4.800;2022-10-15T04:23:13;121.22;;;44.22;;
69789;SDS011;57064;52.046;4.800;2022-10-15T04:25:39;124.13;;;48.08;;
69789;SDS011;57064;52.046;4.800;2022-10-15T04:28:05;115.72;;;45.00;;
69789;SDS011;57064;52.046;4.800;2022-10-15T04:30:31;117.70;;;43.95;;
69789;SDS011;57064;52.046;4.800;2022-10-15T04:32:58;119.53;;;45.42;;
69789;SDS011;57064;52.046;4.800;2022-10-15T04:35:24;120.68;;;46.65;;
69789;SDS011;57064;52.046;4.800;2022-10-15T04:37:50;124.75;;;46.40;;
69789;SDS011;57064;52.046;4.800;2022-10-15T04:40:16;123.55;;;48.53;;
69789;SDS011;57064;52.046;4.800;2022-10-15T04:42:42;126.78;;;46.42;;
69789;SDS011;57064;52.046;4.800;2022-10-15T04:45:09;130.80;;;48.97;;
69789;SDS011;57064;52.046;4.800;2022-10-15T04:47:36;122.95;;;46.40;;
69789;SDS011;57064;52.046;4.800;2022-10-15T04:50:02;121.97;;;46.65;;
69789;SDS011;57064;52.046;4.800;2022-10-15T04:52:28;121.10;;;48.65;;
69789;SDS011;57064;52.046;4.800;2022-10-15T04:54:54;120.85;;;48.10;;
69789;SDS011;57064;52.046;4.800;2022-10-15T04:57:21;130.23;;;48.38;;
69789;SDS011;57064;52.046;4.800;2022-10-15T04:59:47;130.63;;;50.22;;
69789;SDS011;57064;52.046;4.800;2022-10-15T05:02:13;119.07;;;48.72;;
69789;SDS011;57064;52.046;4.800;2022-10-15T05:04:39;117.07;;;48.28;;
69789;SDS011;57064;52.046;4.800;2022-10-15T05:07:05;129.98;;;49.10;;
69789;SDS011;57064;52.046;4.800;2022-10-15T05:09:31;131.45;;;49.95;;
69789;SDS011;57064;52.046;4.800;2022-10-15T05:11:57;127.70;;;49.92;;
69789;SDS011;57064;52.046;4.800;2022-10-15T05:14:23;132.25;;;47.70;;
69789;SDS011;57064;52.046;4.800;2022-10-15T05:16:49;126.82;;;46.42;;
69789;SDS011;57064;52.046;4.800;2022-10-15T05:19:16;132.50;;;47.53;;
69789;SDS011;57064;52.046;4.800;2022-10-15T05:21:42;138.20;;;47.38;;
69789;SDS011;57064;52.046;4.800;2022-10-15T05:24:08;136.73;;;44.00;;
69789;SDS011;57064;52.046;4.800;2022-10-15T05:26:35;128.40;;;45.72;;
69789;SDS011;57064;52.046;4.800;2022-10-15T05:29:01;127.72;;;44.25;;
69789;SDS011;57064;52.046;4.800;2022-10-15T05:31:28;125.30;;;43.63;;
69789;SDS011;57064;52.046;4.800;2022-10-15T05:33:56;137.82;;;44.67;;
69789;SDS011;57064;52.046;4.800;2022-10-15T05:36:23;127.50;;;42.78;;
69789;SDS011;57064;52.046;4.800;2022-10-15T05:38:51;118.88;;;41.75;;
69789;SDS011;57064;52.046;4.800;2022-10-15T05:41:19;124.30;;;43.42;;
69789;SDS011;57064;52.046;4.800;2022-10-15T05:43:47;122.00;;;42.45;;
69789;SDS011;57064;52.046;4.800;2022-10-15T05:46:14;127.72;;;41.45;;
69789;SDS011;57064;52.046;4.800;2022-10-15T05:48:40;119.22;;;39.92;;
69789;SDS011;57064;52.046;4.800;2022-10-15T05:51:09;125.47;;;42.35;;
69789;SDS011;57064;52.046;4.800;2022-10-15T05:53:36;120.57;;;38.85;;
69789;SDS011;57064;52.046;4.800;2022-10-15T05:56:04;118.65;;;41.88;;
69789;SDS011;57064;52.046;4.800;2022-10-15T05:58:32;121.32;;;40.97;;
69789;SDS011;57064;52.046;4.800;2022-10-15T06:00:59;128.07;;;41.97;;
69789;SDS011;57064;52.046;4.800;2022-10-15T06:03:27;118.70;;;41.05;;
69789;SDS011;57064;52.046;4.800;2022-10-15T06:05:54;134.02;;;40.40;;
69789;SDS011;57064;52.046;4.800;2022-10-15T06:08:20;128.77;;;38.60;;
69789;SDS011;57064;52.046;4.800;2022-10-15T06:10:47;117.57;;;37.33;;
69789;SDS011;57064;52.046;4.800;2022-10-15T06:13:13;118.65;;;35.22;;
69789;SDS011;57064;52.046;4.800;2022-10-15T06:15:40;111.90;;;34.80;;
69789;SDS011;57064;52.046;4.800;2022-10-15T06:18:08;104.05;;;33.80;;
69789;SDS011;57064;52.046;4.800;2022-10-15T06:20:40;115.50;;;34.85;;
69789;SDS011;57064;52.046;4.800;2022-10-15T06:23:06;107.43;;;34.42;;
69789;SDS011;57064;52.046;4.800;2022-10-15T06:25:33;118.05;;;35.53;;
69789;SDS011;57064;52.046;4.800;2022-10-15T06:28:03;123.55;;;33.92;;
69789;SDS011;57064;52.046;4.800;2022-10-15T06:30:31;122.13;;;34.50;;
69789;SDS011;57064;52.046;4.800;2022-10-15T06:33:00;130.63;;;34.85;;
69789;SDS011;57064;52.046;4.800;2022-10-15T06:35:26;136.05;;;35.25;;
69789;SDS011;57064;52.046;4.800;2022-10-15T06:38:03;139.35;;;38.17;;
69789;SDS011;57064;52.046;4.800;2022-10-15T06:40:30;137.00;;;37.60;;
69789;SDS011;57064;52.046;4.800;2022-10-15T06:43:06;140.27;;;35.88;;
69789;SDS011;57064;52.046;4.800;2022-10-15T06:45:35;147.18;;;38.10;;
69789;SDS011;57064;52.046;4.800;2022-10-15T06:48:03;144.70;;;39.28;;
69789;SDS011;57064;52.046;4.800;2022-10-15T06:50:33;136.55;;;38.22;;
69789;SDS011;57064;52.046;4.800;2022-10-15T06:53:00;144.13;;;37.30;;
69789;SDS011;57064;52.046;4.800;2022-10-15T06:55:26;139.10;;;38.47;;
69789;SDS011;57064;52.046;4.800;2022-10-15T06:57:53;137.15;;;37.97;;
69789;SDS011;57064;52.046;4.800;2022-10-15T07:00:20;140.30;;;39.97;;
69789;SDS011;57064;52.046;4.800;2022-10-15T07:02:47;133.27;;;39.03;;
69789;SDS011;57064;52.046;4.800;2022-10-15T07:05:14;135.95;;;42.33;;
69789;SDS011;57064;52.046;4.800;2022-10-15T07:07:40;139.80;;;43.97;;
69789;SDS011;57064;52.046;4.800;2022-10-15T07:10:06;155.38;;;43.50;;
69789;SDS011;57064;52.046;4.800;2022-10-15T07:12:33;139.30;;;42.47;;
69789;SDS011;57064;52.046;4.800;2022-10-15T07:14:59;139.48;;;39.35;;
69789;SDS011;57064;52.046;4.800;2022-10-15T07:17:25;156.65;;;40.35;;
69789;SDS011;57064;52.046;4.800;2022-10-15T07:19:52;154.05;;;40.33;;
69789;SDS011;57064;52.046;4.800;2022-10-15T07:22:18;155.18;;;41.05;;
69789;SDS011;57064;52.046;4.800;2022-10-15T07:24:44;153.43;;;39.42;;
69789;SDS011;57064;52.046;4.800;2022-10-15T07:27:10;151.75;;;40.58;;
69789;SDS011;57064;52.046;4.800;2022-10-15T07:29:37;138.13;;;37.47;;
69789;SDS011;57064;52.046;4.800;2022-10-15T07:32:03;146.23;;;37.58;;
69789;SDS011;57064;52.046;4.800;2022-10-15T07:34:29;130.40;;;35.22;;
69789;SDS011;57064;52.046;4.800;2022-10-15T07:36:55;124.10;;;35.53;;
69789;SDS011;57064;52.046;4.800;2022-10-15T07:39:21;130.10;;;35.88;;
69789;SDS011;57064;52.046;4.800;2022-10-15T07:41:47;113.72;;;32.53;;
69789;SDS011;57064;52.046;4.800;2022-10-15T07:44:13;102.30;;;31.27;;
69789;SDS011;57064;52.046;4.800;2022-10-15T07:46:39;106.03;;;30.50;;
69789;SDS011;57064;52.046;4.800;2022-10-15T07:49:05;95.63;;;27.75;;
69789;SDS011;57064;52.046;4.800;2022-10-15T07:51:33;83.22;;;26.27;;
69789;SDS011;57064;52.046;4.800;2022-10-15T07:53:59;73.93;;;25.08;;
69789;SDS011;57064;52.046;4.800;2022-10-15T07:56:25;75.93;;;25.27;;
69789;SDS011;57064;52.046;4.800;2022-10-15T07:58:51;65.10;;;23.17;;
69789;SDS011;57064;52.046;4.800;2022-10-15T08:01:18;72.82;;;23.33;;
69789;SDS011;57064;52.046;4.800;2022-10-15T08:03:45;61.45;;;21.70;;
69789;SDS011;57064;52.046;4.800;2022-10-15T08:06:11;59.00;;;21.17;;
69789;SDS011;57064;52.046;4.800;2022-10-15T08:08:37;56.45;;;21.48;;
69789;SDS011;57064;52.046;4.800;2022-10-15T08:11:13;52.05;;;20.30;;
69789;SDS011;57064;52.046;4.800;2022-10-15T08:13:41;54.78;;;21.25;;
69789;SDS011;57064;52.046;4.800;2022-10-15T08:16:11;45.78;;;18.27;;
69789;SDS011;57064;52.046;4.800;2022-10-15T08:18:38;34.60;;;16.63;;
69789;SDS011;57064;52.046;4.800;2022-10-15T08:21:05;39.08;;;17.85;;
69789;SDS011;57064;52.046;4.800;2022-10-15T08:23:32;36.90;;;17.17;;
69789;SDS011;57064;52.046;4.800;2022-10-15T08:25:59;31.73;;;14.52;;
69789;SDS011;57064;52.046;4.800;2022-10-15T08:28:25;32.42;;;15.40;;
69789;SDS011;57064;52.046;4.800;2022-10-15T08:30:52;34.00;;;16.45;;
69789;SDS011;57064;52.046;4.800;2022-10-15T08:33:19;32.28;;;16.67;;
69789;SDS011;57064;52.046;4.800;2022-10-15T08:35:45;30.45;;;15.13;;
69789;SDS011;57064;52.046;4.800;2022-10-15T08:38:11;33.67;;;16.30;;
69789;SDS011;57064;52.046;4.800;2022-10-15T08:40:38;29.13;;;15.48;;
69789;SDS011;57064;52.046;4.800;2022-10-15T08:43:16;30.05;;;15.07;;
69789;SDS011;57064;52.046;4.800;2022-10-15T08:45:49;28.77;;;14.25;;
69789;SDS011;57064;52.046;4.800;2022-10-15T08:48:32;25.35;;;13.77;;
69789;SDS011;57064;52.046;4.800;2022-10-15T08:51:02;23.58;;;12.82;;
69789;SDS011;57064;52.046;4.800;2022-10-15T08:53:36;25.83;;;14.05;;
69789;SDS011;57064;52.046;4.800;2022-10-15T08:56:11;25.40;;;13.50;;
69789;SDS011;57064;52.046;4.800;2022-10-15T08:58:50;25.23;;;11.45;;
69789;SDS011;57064;52.046;4.800;2022-10-15T09:01:47;25.17;;;12.82;;
69789;SDS011;57064;52.046;4.800;2022-10-15T09:06:58;19.48;;;10.40;;
69789;SDS011;57064;52.046;4.800;2022-10-15T09:15:14;20.25;;;10.98;;
69789;SDS011;57064;52.046;4.800;2022-10-15T09:17:42;20.35;;;11.52;;
69789;SDS011;57064;52.046;4.800;2022-10-15T09:20:16;21.60;;;11.93;;
69789;SDS011;57064;52.046;4.800;2022-10-15T09:22:48;22.00;;;11.63;;
69789;SDS011;57064;52.046;4.800;2022-10-15T09:25:17;20.13;;;10.82;;
69789;SDS011;57064;52.046;4.800;2022-10-15T09:27:48;24.90;;;12.07;;
69789;SDS011;57064;52.046;4.800;2022-10-15T09:33:14;22.98;;;12.50;;
69789;SDS011;57064;52.046;4.800;2022-10-15T09:39:11;25.67;;;14.23;;
69789;SDS011;57064;52.046;4.800;2022-10-15T09:44:51;31.23;;;15.23;;
69789;SDS011;57064;52.046;4.800;2022-10-15T09:47:22;27.55;;;14.63;;
69789;SDS011;57064;52.046;4.800;2022-10-15T09:49:54;27.77;;;14.88;;
69789;SDS011;57064;52.046;4.800;2022-10-15T09:57:41;29.52;;;15.70;;
69789;SDS011;57064;52.046;4.800;2022-10-15T10:00:15;31.73;;;16.20;;
69789;SDS011;57064;52.046;4.800;2022-10-15T10:02:41;31.70;;;16.48;;
69789;SDS011;57064;52.046;4.800;2022-10-15T10:08:05;29.92;;;14.38;;
69789;SDS011;57064;52.046;4.800;2022-10-15T10:10:40;27.70;;;14.27;;
69789;SDS011;57064;52.046;4.800;2022-10-15T10:13:08;28.02;;;13.85;;
69789;SDS011;57064;52.046;4.800;2022-10-15T10:16:05;26.05;;;12.93;;
69789;SDS011;57064;52.046;4.800;2022-10-15T10:18:35;25.80;;;12.68;;
69789;SDS011;57064;52.046;4.800;2022-10-15T10:23:55;26.40;;;13.55;;
69789;SDS011;57064;52.046;4.800;2022-10-15T10:26:41;23.02;;;12.35;;
69789;SDS011;57064;52.046;4.800;2022-10-15T10:29:10;22.25;;;12.10;;
69789;SDS011;57064;52.046;4.800;2022-10-15T10:31:44;19.17;;;10.40;;
69789;SDS011;57064;52.046;4.800;2022-10-15T10:34:15;20.33;;;10.57;;
69789;SDS011;57064;52.046;4.800;2022-10-15T10:36:49;21.63;;;11.48;;
69789;SDS011;57064;52.046;4.800;2022-10-15T10:41:56;19.13;;;10.60;;
69789;SDS011;57064;52.046;4.800;2022-10-15T10:44:37;16.40;;;9.68;;
69789;SDS011;57064;52.046;4.800;2022-10-15T10:49:53;18.80;;;10.07;;
69789;SDS011;57064;52.046;4.800;2022-10-15T10:52:28;19.83;;;9.57;;
69789;SDS011;57064;52.046;4.800;2022-10-15T10:57:56;15.40;;;8.45;;
69789;SDS011;57064;52.046;4.800;2022-10-15T11:00:46;19.67;;;10.07;;
69789;SDS011;57064;52.046;4.800;2022-10-15T11:03:29;16.27;;;8.65;;
69789;SDS011;57064;52.046;4.800;2022-10-15T11:11:12;18.13;;;9.48;;
69789;SDS011;57064;52.046;4.800;2022-10-15T11:13:47;16.65;;;8.80;;
69789;SDS011;57064;52.046;4.800;2022-10-15T11:16:48;15.73;;;8.55;;
69789;SDS011;57064;52.046;4.800;2022-10-15T11:19:35;16.05;;;8.95;;
69789;SDS011;57064;52.046;4.800;2022-10-15T11:25:39;20.20;;;9.23;;
69789;SDS011;57064;52.046;4.800;2022-10-15T11:34:08;18.77;;;9.52;;
69789;SDS011;57064;52.046;4.800;2022-10-15T11:53:10;15.50;;;8.80;;
69789;SDS011;57064;52.046;4.800;2022-10-15T11:56:16;13.77;;;8.88;;
69789;SDS011;57064;52.046;4.800;2022-10-15T11:58:46;17.35;;;10.15;;
69789;SDS011;57064;52.046;4.800;2022-10-15T12:01:22;15.50;;;9.10;;
69789;SDS011;57064;52.046;4.800;2022-10-15T12:03:58;14.25;;;9.73;;
69789;SDS011;57064;52.046;4.800;2022-10-15T12:06:29;17.75;;;10.25;;
69789;SDS011;57064;52.046;4.800;2022-10-15T12:08:59;14.57;;;9.48;;
69789;SDS011;57064;52.046;4.800;2022-10-15T12:14:01;15.70;;;9.98;;
69789;SDS011;57064;52.046;4.800;2022-10-15T12:19:44;17.88;;;10.07;;
69789;SDS011;57064;52.046;4.800;2022-10-15T12:22:55;15.13;;;8.77;;
69789;SDS011;57064;52.046;4.800;2022-10-15T12:30:34;10.73;;;7.63;;
69789;SDS011;57064;52.046;4.800;2022-10-15T12:35:59;11.02;;;7.32;;
69789;SDS011;57064;52.046;4.800;2022-10-15T12:38:37;9.88;;;6.55;;
69789;SDS011;57064;52.046;4.800;2022-10-15T12:41:07;10.02;;;7.15;;
69789;SDS011;57064;52.046;4.800;2022-10-15T12:43:42;10.07;;;6.30;;
69789;SDS011;57064;52.046;4.800;2022-10-15T12:46:11;9.25;;;6.30;;
69789;SDS011;57064;52.046;4.800;2022-10-15T12:49:02;11.60;;;5.47;;
69789;SDS011;57064;52.046;4.800;2022-10-15T12:51:52;8.80;;;4.63;;
69789;SDS011;57064;52.046;4.800;2022-10-15T12:54:32;6.30;;;4.70;;
69789;SDS011;57064;52.046;4.800;2022-10-15T12:57:00;7.03;;;4.72;;
69789;SDS011;57064;52.046;4.800;2022-10-15T13:05:01;6.22;;;4.25;;
69789;SDS011;57064;52.046;4.800;2022-10-15T13:07:29;6.90;;;4.70;;
69789;SDS011;57064;52.046;4.800;2022-10-15T13:09:58;8.10;;;4.53;;
69789;SDS011;57064;52.046;4.800;2022-10-15T13:12:26;6.45;;;4.57;;
69789;SDS011;57064;52.046;4.800;2022-10-15T13:14:58;5.47;;;3.67;;
69789;SDS011;57064;52.046;4.800;2022-10-15T13:17:28;5.40;;;3.40;;
69789;SDS011;57064;52.046;4.800;2022-10-15T13:19:59;4.90;;;3.05;;
69789;SDS011;57064;52.046;4.800;2022-10-15T13:22:29;5.57;;;3.28;;
69789;SDS011;57064;52.046;4.800;2022-10-15T13:24:57;5.38;;;3.22;;
69789;SDS011;57064;52.046;4.800;2022-10-15T13:27:25;5.90;;;3.30;;
69789;SDS011;57064;52.046;4.800;2022-10-15T13:30:04;3.85;;;2.40;;
69789;SDS011;57064;52.046;4.800;2022-10-15T13:32:44;5.32;;;3.22;;
69789;SDS011;57064;52.046;4.800;2022-10-15T13:35:17;4.40;;;2.90;;
69789;SDS011;57064;52.046;4.800;2022-10-15T13:37:46;4.75;;;2.90;;
69789;SDS011;57064;52.046;4.800;2022-10-15T13:40:26;4.45;;;2.42;;
69789;SDS011;57064;52.046;4.800;2022-10-15T13:45:28;5.72;;;2.65;;
69789;SDS011;57064;52.046;4.800;2022-10-15T13:47:55;3.75;;;2.17;;
69789;SDS011;57064;52.046;4.800;2022-10-15T13:50:23;3.17;;;2.05;;
69789;SDS011;57064;52.046;4.800;2022-10-15T13:52:57;2.00;;;1.40;;
69789;SDS011;57064;52.046;4.800;2022-10-15T13:55:25;5.05;;;1.70;;
69789;SDS011;57064;52.046;4.800;2022-10-15T13:58:03;2.15;;;1.00;;
69789;SDS011;57064;52.046;4.800;2022-10-15T14:00:40;3.28;;;1.10;;
69789;SDS011;57064;52.046;4.800;2022-10-15T14:03:14;2.03;;;0.98;;
69789;SDS011;57064;52.046;4.800;2022-10-15T14:05:52;2.90;;;1.30;;
69789;SDS011;57064;52.046;4.800;2022-10-15T14:08:23;1.33;;;0.32;;
69789;SDS011;57064;52.046;4.800;2022-10-15T14:10:52;1.85;;;0.50;;
69789;SDS011;57064;52.046;4.800;2022-10-15T14:13:22;3.97;;;0.93;;
69789;SDS011;57064;52.046;4.800;2022-10-15T14:18:42;3.80;;;0.70;;
69789;SDS011;57064;52.046;4.800;2022-10-15T14:21:20;3.92;;;0.50;;
69789;SDS011;57064;52.046;4.800;2022-10-15T14:26:29;2.13;;;0.47;;
69789;SDS011;57064;52.046;4.800;2022-10-15T14:28:57;3.30;;;0.75;;
69789;SDS011;57064;52.046;4.800;2022-10-15T14:31:27;2.95;;;0.73;;
69789;SDS011;57064;52.046;4.800;2022-10-15T14:33:56;5.07;;;0.70;;
69789;SDS011;57064;52.046;4.800;2022-10-15T14:38:50;5.10;;;1.30;;
69789;SDS011;57064;52.046;4.800;2022-10-15T14:41:30;4.18;;;0.70;;
69789;SDS011;57064;52.046;4.800;2022-10-15T14:44:01;1.55;;;0.65;;
69789;SDS011;57064;52.046;4.800;2022-10-15T14:46:35;3.85;;;0.70;;
69789;SDS011;57064;52.046;4.800;2022-10-15T14:49:11;2.80;;;0.77;;
69789;SDS011;57064;52.046;4.800;2022-10-15T14:52:06;1.30;;;0.52;;
69789;SDS011;57064;52.046;4.800;2022-10-15T14:54:41;3.10;;;0.50;;
69789;SDS011;57064;52.046;4.800;2022-10-15T14:59:51;1.60;;;0.60;;
69789;SDS011;57064;52.046;4.800;2022-10-15T15:02:19;6.40;;;1.00;;
69789;SDS011;57064;52.046;4.800;2022-10-15T15:04:52;2.13;;;1.15;;
69789;SDS011;57064;52.046;4.800;2022-10-15T15:07:32;3.03;;;0.63;;
69789;SDS011;57064;52.046;4.800;2022-10-15T15:09:58;2.65;;;0.70;;
69789;SDS011;57064;52.046;4.800;2022-10-15T15:12:24;4.72;;;0.90;;
69789;SDS011;57064;52.046;4.800;2022-10-15T15:14:51;2.60;;;0.43;;
69789;SDS011;57064;52.046;4.800;2022-10-15T15:17:20;1.77;;;0.50;;
69789;SDS011;57064;52.046;4.800;2022-10-15T15:19:49;1.10;;;0.50;;
69789;SDS011;57064;52.046;4.800;2022-10-15T15:22:31;5.38;;;0.60;;
69789;SDS011;57064;52.046;4.800;2022-10-15T15:27:27;2.17;;;0.50;;
69789;SDS011;57064;52.046;4.800;2022-10-15T15:29:55;3.15;;;0.60;;
69789;SDS011;57064;52.046;4.800;2022-10-15T15:32:21;3.03;;;0.60;;
69789;SDS011;57064;52.046;4.800;2022-10-15T15:34:49;2.53;;;0.60;;
69789;SDS011;57064;52.046;4.800;2022-10-15T15:37:17;2.47;;;0.77;;
69789;SDS011;57064;52.046;4.800;2022-10-15T15:39:45;2.70;;;0.38;;
69789;SDS011;57064;52.046;4.800;2022-10-15T15:42:12;3.13;;;0.73;;
69789;SDS011;57064;52.046;4.800;2022-10-15T15:44:47;3.42;;;1.02;;
69789;SDS011;57064;52.046;4.800;2022-10-15T15:47:14;3.88;;;1.45;;
69789;SDS011;57064;52.046;4.800;2022-10-15T15:49:40;7.05;;;2.00;;
69789;SDS011;57064;52.046;4.800;2022-10-15T15:52:07;5.53;;;1.50;;
69789;SDS011;57064;52.046;4.800;2022-10-15T15:54:40;6.68;;;1.92;;
69789;SDS011;57064;52.046;4.800;2022-10-15T15:57:07;4.50;;;1.35;;
69789;SDS011;57064;52.046;4.800;2022-10-15T15:59:33;5.25;;;1.20;;
69789;SDS011;57064;52.046;4.800;2022-10-15T16:01:59;3.35;;;1.25;;
69789;SDS011;57064;52.046;4.800;2022-10-15T16:04:25;5.38;;;1.02;;
69789;SDS011;57064;52.046;4.800;2022-10-15T16:06:51;3.80;;;0.80;;
69789;SDS011;57064;52.046;4.800;2022-10-15T16:09:17;3.67;;;0.93;;
69789;SDS011;57064;52.046;4.800;2022-10-15T16:11:46;2.35;;;0.93;;
69789;SDS011;57064;52.046;4.800;2022-10-15T16:14:12;4.70;;;1.02;;
69789;SDS011;57064;52.046;4.800;2022-10-15T16:16:38;4.20;;;1.20;;
69789;SDS011;57064;52.046;4.800;2022-10-15T16:19:05;3.85;;;1.17;;
69789;SDS011;57064;52.046;4.800;2022-10-15T16:21:31;4.93;;;0.88;;
69789;SDS011;57064;52.046;4.800;2022-10-15T16:23:58;3.17;;;1.23;;
69789;SDS011;57064;52.046;4.800;2022-10-15T16:26:24;4.68;;;1.77;;
69789;SDS011;57064;52.046;4.800;2022-10-15T16:28:51;4.65;;;0.90;;
69789;SDS011;57064;52.046;4.800;2022-10-15T16:33:47;6.85;;;1.60;;
69789;SDS011;57064;52.046;4.800;2022-10-15T16:36:14;6.82;;;1.30;;
69789;SDS011;57064;52.046;4.800;2022-10-15T16:38:41;7.95;;;2.00;;
69789;SDS011;57064;52.046;4.800;2022-10-15T16:41:09;13.60;;;6.80;;
69789;SDS011;57064;52.046;4.800;2022-10-15T16:43:35;11.57;;;3.88;;
69789;SDS011;57064;52.046;4.800;2022-10-15T16:46:02;6.47;;;2.50;;
69789;SDS011;57064;52.046;4.800;2022-10-15T16:48:29;12.43;;;6.30;;
69789;SDS011;57064;52.046;4.800;2022-10-15T16:51:03;12.30;;;4.30;;
69789;SDS011;57064;52.046;4.800;2022-10-15T16:53:32;8.18;;;4.30;;
69789;SDS011;57064;52.046;4.800;2022-10-15T16:56:06;6.03;;;2.78;;